sensor_id;sensor_type;location;lat;lon;timestamp;P1;durP1;ratioP1;P2;durP2;ratioP2
3006;SDS011;1513;47.650;10.720;2022-07-29T00:01:13;2.17;;;1.90;;
3006;SDS011;1513;47.650;10.720;2022-07-29T00:04:18;2.27;;;1.50;;
3006;SDS011;1513;47.650;10.720;2022-07-29T00:07:22;2.10;;;2.00;;
3006;SDS011;1513;47.650;10.720;2022-07-29T00:10:25;2.30;;;2.10;;
3006;SDS011;1513;47.650;10.720;2022-07-29T00:13:29;1.90;;;1.80;;
3006;SDS011;1513;47.650;10.720;2022-07-29T00:16:32;2.53;;;1.90;;
3006;SDS011;1513;47.650;10.720;2022-07-29T00:19:36;2.13;;;2.00;;
3006;SDS011;1513;47.650;10.720;2022-07-29T00:22:39;3.67;;;2.10;;
3006;SDS011;1513;47.650;10.720;2022-07-29T00:25:42;2.33;;;1.90;;
3006;SDS011;1513;47.650;10.720;2022-07-29T00:28:46;2.63;;;2.43;;
3006;SDS011;1513;47.650;10.720;2022-07-29T00:31:50;2.23;;;2.03;;
3006;SDS011;1513;47.650;10.720;2022-07-29T00:34:53;1.77;;;1.67;;
3006;SDS011;1513;47.650;10.720;2022-07-29T00:38:19;2.10;;;2.00;;
3006;SDS011;1513;47.650;10.720;2022-07-29T00:41:22;2.50;;;2.23;;
3006;SDS011;1513;47.650;10.720;2022-07-29T00:44:26;2.10;;;1.97;;
3006;SDS011;1513;47.650;10.720;2022-07-29T00:47:29;2.40;;;2.10;;
3006;SDS011;1513;47.650;10.720;2022-07-29T00:50:32;2.20;;;2.00;;
3006;SDS011;1513;47.650;10.720;2022-07-29T00:53:37;2.37;;;1.90;;
3006;SDS011;1513;47.650;10.720;2022-07-29T00:56:41;2.57;;;2.37;;
3006;SDS011;1513;47.650;10.720;2022-07-29T00:59:44;3.50;;;2.20;;
3006;SDS011;1513;47.650;10.720;2022-07-29T01:02:48;2.40;;;1.73;;
3006;SDS011;1513;47.650;10.720;2022-07-29T01:05:51;3.50;;;1.83;;
3006;SDS011;1513;47.650;10.720;2022-07-29T01:08:56;2.10;;;1.83;;
3006;SDS011;1513;47.650;10.720;2022-07-29T01:12:00;1.70;;;1.60;;
3006;SDS011;1513;47.650;10.720;2022-07-29T01:15:05;3.13;;;1.97;;
3006;SDS011;1513;47.650;10.720;2022-07-29T01:18:11;1.93;;;1.60;;
3006;SDS011;1513;47.650;10.720;2022-07-29T01:21:27;10.30;;;2.70;;
3006;SDS011;1513;47.650;10.720;2022-07-29T01:31:45;2.20;;;1.40;;
3006;SDS011;1513;47.650;10.720;2022-07-29T01:38:17;3.17;;;2.10;;
3006;SDS011;1513;47.650;10.720;2022-07-29T01:41:24;2.90;;;1.60;;
3006;SDS011;1513;47.650;10.720;2022-07-29T01:44:34;2.13;;;1.40;;
3006;SDS011;1513;47.650;10.720;2022-07-29T01:48:04;1.70;;;1.60;;
3006;SDS011;1513;47.650;10.720;2022-07-29T01:54:36;1.80;;;1.37;;
3006;SDS011;1513;47.650;10.720;2022-07-29T01:57:48;1.63;;;1.53;;
3006;SDS011;1513;47.650;10.720;2022-07-29T02:00:52;1.90;;;1.73;;
3006;SDS011;1513;47.650;10.720;2022-07-29T02:03:56;1.97;;;1.87;;
3006;SDS011;1513;47.650;10.720;2022-07-29T02:07:01;1.33;;;1.33;;
3006;SDS011;1513;47.650;10.720;2022-07-29T02:10:08;2.00;;;1.90;;
3006;SDS011;1513;47.650;10.720;2022-07-29T02:13:13;1.67;;;1.57;;
3006;SDS011;1513;47.650;10.720;2022-07-29T02:16:16;1.90;;;1.30;;
3006;SDS011;1513;47.650;10.720;2022-07-29T02:19:23;1.83;;;1.73;;
3006;SDS011;1513;47.650;10.720;2022-07-29T02:22:29;1.77;;;1.67;;
3006;SDS011;1513;47.650;10.720;2022-07-29T02:25:34;1.70;;;1.60;;
3006;SDS011;1513;47.650;10.720;2022-07-29T02:28:38;1.60;;;1.50;;
3006;SDS011;1513;47.650;10.720;2022-07-29T02:31:42;2.20;;;1.70;;
3006;SDS011;1513;47.650;10.720;2022-07-29T02:34:49;2.37;;;1.90;;
3006;SDS011;1513;47.650;10.720;2022-07-29T02:37:53;2.37;;;1.80;;
3006;SDS011;1513;47.650;10.720;2022-07-29T02:42:02;1.60;;;1.40;;
3006;SDS011;1513;47.650;10.720;2022-07-29T02:44:39;5.07;;;1.37;;
3006;SDS011;1513;47.650;10.720;2022-07-29T02:47:43;1.67;;;1.57;;
3006;SDS011;1513;47.650;10.720;2022-07-29T02:50:51;1.90;;;1.70;;
3006;SDS011;1513;47.650;10.720;2022-07-29T02:54:07;1.63;;;1.53;;
3006;SDS011;1513;47.650;10.720;2022-07-29T02:57:29;1.57;;;1.47;;
3006;SDS011;1513;47.650;10.720;2022-07-29T03:00:37;2.50;;;1.50;;
3006;SDS011;1513;47.650;10.720;2022-07-29T03:03:45;1.47;;;1.37;;
3006;SDS011;1513;47.650;10.720;2022-07-29T03:06:49;1.70;;;1.60;;
3006;SDS011;1513;47.650;10.720;2022-07-29T03:09:53;2.00;;;1.90;;
3006;SDS011;1513;47.650;10.720;2022-07-29T03:12:58;1.63;;;1.53;;
3006;SDS011;1513;47.650;10.720;2022-07-29T03:16:02;1.43;;;1.33;;
3006;SDS011;1513;47.650;10.720;2022-07-29T03:19:07;2.30;;;1.87;;
3006;SDS011;1513;47.650;10.720;2022-07-29T03:22:10;1.57;;;1.47;;
3006;SDS011;1513;47.650;10.720;2022-07-29T03:25:15;1.83;;;1.67;;
3006;SDS011;1513;47.650;10.720;2022-07-29T03:28:20;2.57;;;2.07;;
3006;SDS011;1513;47.650;10.720;2022-07-29T03:31:24;1.73;;;1.60;;
3006;SDS011;1513;47.650;10.720;2022-07-29T03:34:28;1.83;;;1.73;;
3006;SDS011;1513;47.650;10.720;2022-07-29T03:37:31;1.60;;;1.50;;
3006;SDS011;1513;47.650;10.720;2022-07-29T03:40:55;1.67;;;1.57;;
3006;SDS011;1513;47.650;10.720;2022-07-29T03:44:00;1.40;;;1.40;;
3006;SDS011;1513;47.650;10.720;2022-07-29T03:47:05;1.87;;;1.77;;
3006;SDS011;1513;47.650;10.720;2022-07-29T03:50:10;1.83;;;1.73;;
3006;SDS011;1513;47.650;10.720;2022-07-29T03:53:15;2.33;;;2.10;;
3006;SDS011;1513;47.650;10.720;2022-07-29T03:56:20;1.87;;;1.77;;
3006;SDS011;1513;47.650;10.720;2022-07-29T03:59:25;2.80;;;1.67;;
3006;SDS011;1513;47.650;10.720;2022-07-29T04:02:29;2.00;;;1.90;;
3006;SDS011;1513;47.650;10.720;2022-07-29T04:05:33;1.77;;;1.67;;
3006;SDS011;1513;47.650;10.720;2022-07-29T04:08:36;1.67;;;1.57;;
3006;SDS011;1513;47.650;10.720;2022-07-29T04:11:40;1.70;;;1.60;;
3006;SDS011;1513;47.650;10.720;2022-07-29T04:14:44;2.07;;;1.70;;
3006;SDS011;1513;47.650;10.720;2022-07-29T04:17:48;1.93;;;1.50;;
3006;SDS011;1513;47.650;10.720;2022-07-29T04:20:51;1.60;;;1.50;;
3006;SDS011;1513;47.650;10.720;2022-07-29T04:23:55;2.10;;;1.70;;
3006;SDS011;1513;47.650;10.720;2022-07-29T04:26:58;1.70;;;1.60;;
3006;SDS011;1513;47.650;10.720;2022-07-29T04:30:02;1.70;;;1.60;;
3006;SDS011;1513;47.650;10.720;2022-07-29T04:33:06;1.53;;;1.43;;
3006;SDS011;1513;47.650;10.720;2022-07-29T04:36:10;2.20;;;1.70;;
3006;SDS011;1513;47.650;10.720;2022-07-29T04:39:13;5.40;;;1.57;;
3006;SDS011;1513;47.650;10.720;2022-07-29T04:42:17;1.80;;;1.50;;
3006;SDS011;1513;47.650;10.720;2022-07-29T04:45:20;1.30;;;1.20;;
3006;SDS011;1513;47.650;10.720;2022-07-29T04:48:24;1.50;;;1.40;;
3006;SDS011;1513;47.650;10.720;2022-07-29T04:51:28;4.23;;;1.70;;
3006;SDS011;1513;47.650;10.720;2022-07-29T04:54:32;1.80;;;1.60;;
3006;SDS011;1513;47.650;10.720;2022-07-29T04:57:36;2.90;;;1.90;;
3006;SDS011;1513;47.650;10.720;2022-07-29T05:00:39;1.70;;;1.60;;
3006;SDS011;1513;47.650;10.720;2022-07-29T05:03:43;1.90;;;1.80;;
3006;SDS011;1513;47.650;10.720;2022-07-29T05:06:47;2.20;;;2.00;;
3006;SDS011;1513;47.650;10.720;2022-07-29T05:09:50;1.40;;;1.40;;
3006;SDS011;1513;47.650;10.720;2022-07-29T05:12:55;2.30;;;2.10;;
3006;SDS011;1513;47.650;10.720;2022-07-29T05:15:59;3.07;;;1.40;;
3006;SDS011;1513;47.650;10.720;2022-07-29T05:19:02;3.63;;;1.73;;
3006;SDS011;1513;47.650;10.720;2022-07-29T05:22:05;2.10;;;1.70;;
3006;SDS011;1513;47.650;10.720;2022-07-29T05:25:09;3.53;;;1.80;;
3006;SDS011;1513;47.650;10.720;2022-07-29T05:28:13;1.47;;;1.40;;
3006;SDS011;1513;47.650;10.720;2022-07-29T05:31:17;1.40;;;1.30;;
3006;SDS011;1513;47.650;10.720;2022-07-29T05:34:21;5.50;;;1.70;;
3006;SDS011;1513;47.650;10.720;2022-07-29T05:37:25;2.10;;;1.60;;
3006;SDS011;1513;47.650;10.720;2022-07-29T05:40:28;2.80;;;1.70;;
3006;SDS011;1513;47.650;10.720;2022-07-29T05:43:32;2.17;;;1.50;;
3006;SDS011;1513;47.650;10.720;2022-07-29T05:46:36;2.70;;;1.47;;
3006;SDS011;1513;47.650;10.720;2022-07-29T05:49:39;1.37;;;1.30;;
3006;SDS011;1513;47.650;10.720;2022-07-29T05:52:43;2.17;;;1.77;;
3006;SDS011;1513;47.650;10.720;2022-07-29T05:55:46;2.83;;;1.50;;
3006;SDS011;1513;47.650;10.720;2022-07-29T05:58:51;2.20;;;1.38;;
3006;SDS011;1513;47.650;10.720;2022-07-29T06:01:54;1.60;;;1.50;;
3006;SDS011;1513;47.650;10.720;2022-07-29T06:04:59;1.38;;;1.38;;
3006;SDS011;1513;47.650;10.720;2022-07-29T06:08:02;1.50;;;1.50;;
3006;SDS011;1513;47.650;10.720;2022-07-29T06:11:09;4.43;;;1.58;;
3006;SDS011;1513;47.650;10.720;2022-07-29T06:14:13;1.60;;;1.50;;
3006;SDS011;1513;47.650;10.720;2022-07-29T06:17:17;1.13;;;1.10;;
3006;SDS011;1513;47.650;10.720;2022-07-29T06:20:20;2.20;;;1.60;;
3006;SDS011;1513;47.650;10.720;2022-07-29T06:23:24;1.00;;;1.00;;
3006;SDS011;1513;47.650;10.720;2022-07-29T06:26:28;1.30;;;1.20;;
3006;SDS011;1513;47.650;10.720;2022-07-29T06:29:31;3.10;;;1.48;;
3006;SDS011;1513;47.650;10.720;2022-07-29T06:32:35;1.90;;;1.38;;
3006;SDS011;1513;47.650;10.720;2022-07-29T06:35:38;1.45;;;1.30;;
3006;SDS011;1513;47.650;10.720;2022-07-29T06:38:43;1.30;;;1.20;;
3006;SDS011;1513;47.650;10.720;2022-07-29T06:41:50;1.52;;;1.40;;
3006;SDS011;1513;47.650;10.720;2022-07-29T06:44:53;1.85;;;1.75;;
3006;SDS011;1513;47.650;10.720;2022-07-29T06:47:57;2.77;;;1.70;;
3006;SDS011;1513;47.650;10.720;2022-07-29T06:51:00;1.73;;;1.53;;
3006;SDS011;1513;47.650;10.720;2022-07-29T06:54:04;3.17;;;2.00;;
3006;SDS011;1513;47.650;10.720;2022-07-29T06:57:08;2.17;;;1.80;;
3006;SDS011;1513;47.650;10.720;2022-07-29T07:00:12;2.07;;;1.97;;
3006;SDS011;1513;47.650;10.720;2022-07-29T07:03:16;3.07;;;1.73;;
3006;SDS011;1513;47.650;10.720;2022-07-29T07:06:20;3.10;;;2.10;;
3006;SDS011;1513;47.650;10.720;2022-07-29T07:09:24;2.00;;;1.90;;
3006;SDS011;1513;47.650;10.720;2022-07-29T07:12:27;2.07;;;1.97;;
3006;SDS011;1513;47.650;10.720;2022-07-29T07:15:31;2.67;;;2.17;;
3006;SDS011;1513;47.650;10.720;2022-07-29T07:18:35;2.10;;;1.90;;
3006;SDS011;1513;47.650;10.720;2022-07-29T07:21:38;1.83;;;1.73;;
3006;SDS011;1513;47.650;10.720;2022-07-29T07:24:42;1.90;;;1.80;;
3006;SDS011;1513;47.650;10.720;2022-07-29T07:27:46;3.27;;;2.10;;
3006;SDS011;1513;47.650;10.720;2022-07-29T07:30:49;2.50;;;2.20;;
3006;SDS011;1513;47.650;10.720;2022-07-29T07:33:54;4.70;;;2.70;;
3006;SDS011;1513;47.650;10.720;2022-07-29T07:36:57;2.60;;;2.40;;
3006;SDS011;1513;47.650;10.720;2022-07-29T07:40:02;3.27;;;2.33;;
3006;SDS011;1513;47.650;10.720;2022-07-29T07:43:07;3.00;;;2.70;;
3006;SDS011;1513;47.650;10.720;2022-07-29T07:46:10;5.00;;;2.40;;
3006;SDS011;1513;47.650;10.720;2022-07-29T07:49:13;2.23;;;2.03;;
3006;SDS011;1513;47.650;10.720;2022-07-29T07:52:18;3.60;;;2.20;;
3006;SDS011;1513;47.650;10.720;2022-07-29T07:55:23;2.03;;;1.93;;
3006;SDS011;1513;47.650;10.720;2022-07-29T07:58:27;2.50;;;2.03;;
3006;SDS011;1513;47.650;10.720;2022-07-29T08:01:30;2.20;;;1.97;;
3006;SDS011;1513;47.650;10.720;2022-07-29T08:04:34;2.40;;;2.20;;
3006;SDS011;1513;47.650;10.720;2022-07-29T08:07:38;2.43;;;2.23;;
3006;SDS011;1513;47.650;10.720;2022-07-29T08:10:42;3.30;;;2.63;;
3006;SDS011;1513;47.650;10.720;2022-07-29T08:13:55;2.97;;;2.60;;
3006;SDS011;1513;47.650;10.720;2022-07-29T08:16:58;4.80;;;2.10;;
3006;SDS011;1513;47.650;10.720;2022-07-29T08:20:02;3.07;;;2.17;;
3006;SDS011;1513;47.650;10.720;2022-07-29T08:23:07;3.73;;;2.17;;
3006;SDS011;1513;47.650;10.720;2022-07-29T08:26:12;2.60;;;2.30;;
3006;SDS011;1513;47.650;10.720;2022-07-29T08:29:16;2.50;;;2.30;;
3006;SDS011;1513;47.650;10.720;2022-07-29T08:32:19;2.40;;;2.20;;
3006;SDS011;1513;47.650;10.720;2022-07-29T08:35:22;4.23;;;2.27;;
3006;SDS011;1513;47.650;10.720;2022-07-29T08:38:27;2.37;;;2.13;;
3006;SDS011;1513;47.650;10.720;2022-07-29T08:41:30;2.40;;;2.20;;
3006;SDS011;1513;47.650;10.720;2022-07-29T08:44:34;3.10;;;2.50;;
3006;SDS011;1513;47.650;10.720;2022-07-29T08:47:39;2.90;;;2.63;;
3006;SDS011;1513;47.650;10.720;2022-07-29T08:50:43;2.47;;;2.37;;
3006;SDS011;1513;47.650;10.720;2022-07-29T08:53:48;2.43;;;2.03;;
3006;SDS011;1513;47.650;10.720;2022-07-29T08:56:52;4.40;;;2.27;;
3006;SDS011;1513;47.650;10.720;2022-07-29T08:59:56;2.43;;;2.33;;
3006;SDS011;1513;47.650;10.720;2022-07-29T09:03:01;2.13;;;2.03;;
3006;SDS011;1513;47.650;10.720;2022-07-29T09:06:05;2.83;;;2.70;;
3006;SDS011;1513;47.650;10.720;2022-07-29T09:09:09;2.37;;;2.27;;
3006;SDS011;1513;47.650;10.720;2022-07-29T09:12:13;2.47;;;2.13;;
3006;SDS011;1513;47.650;10.720;2022-07-29T09:15:17;3.53;;;2.63;;
3006;SDS011;1513;47.650;10.720;2022-07-29T09:18:39;2.50;;;2.30;;
3006;SDS011;1513;47.650;10.720;2022-07-29T09:21:44;8.93;;;3.60;;
3006;SDS011;1513;47.650;10.720;2022-07-29T09:25:03;3.10;;;2.90;;
3006;SDS011;1513;47.650;10.720;2022-07-29T09:28:07;5.50;;;2.93;;
3006;SDS011;1513;47.650;10.720;2022-07-29T09:31:15;2.30;;;2.10;;
3006;SDS011;1513;47.650;10.720;2022-07-29T09:34:36;2.80;;;2.60;;
3006;SDS011;1513;47.650;10.720;2022-07-29T09:37:40;2.97;;;2.70;;
3006;SDS011;1513;47.650;10.720;2022-07-29T09:40:55;2.60;;;2.50;;
3006;SDS011;1513;47.650;10.720;2022-07-29T09:43:59;6.13;;;3.07;;
3006;SDS011;1513;47.650;10.720;2022-07-29T09:47:04;2.90;;;2.70;;
3006;SDS011;1513;47.650;10.720;2022-07-29T09:50:08;3.17;;;2.67;;
3006;SDS011;1513;47.650;10.720;2022-07-29T09:53:19;3.10;;;2.30;;
3006;SDS011;1513;47.650;10.720;2022-07-29T09:56:42;3.10;;;2.60;;
3006;SDS011;1513;47.650;10.720;2022-07-29T09:59:55;4.00;;;2.73;;
3006;SDS011;1513;47.650;10.720;2022-07-29T10:03:02;3.20;;;2.83;;
3006;SDS011;1513;47.650;10.720;2022-07-29T10:09:12;3.07;;;2.77;;
3006;SDS011;1513;47.650;10.720;2022-07-29T10:12:15;2.63;;;2.43;;
3006;SDS011;1513;47.650;10.720;2022-07-29T10:15:19;3.00;;;2.63;;
3006;SDS011;1513;47.650;10.720;2022-07-29T10:18:29;5.80;;;2.70;;
3006;SDS011;1513;47.650;10.720;2022-07-29T10:21:32;3.40;;;3.10;;
3006;SDS011;1513;47.650;10.720;2022-07-29T10:24:37;2.70;;;2.53;;
3006;SDS011;1513;47.650;10.720;2022-07-29T10:27:41;2.20;;;2.10;;
3006;SDS011;1513;47.650;10.720;2022-07-29T10:30:45;2.47;;;2.37;;
3006;SDS011;1513;47.650;10.720;2022-07-29T10:33:53;3.40;;;2.83;;
3006;SDS011;1513;47.650;10.720;2022-07-29T10:44:18;3.63;;;3.20;;
3006;SDS011;1513;47.650;10.720;2022-07-29T10:47:24;3.20;;;3.00;;
3006;SDS011;1513;47.650;10.720;2022-07-29T10:50:29;2.60;;;2.40;;
3006;SDS011;1513;47.650;10.720;2022-07-29T10:54:06;3.60;;;2.70;;
3006;SDS011;1513;47.650;10.720;2022-07-29T11:07:06;3.13;;;2.83;;
3006;SDS011;1513;47.650;10.720;2022-07-29T11:17:00;3.50;;;3.20;;
3006;SDS011;1513;47.650;10.720;2022-07-29T11:23:44;4.23;;;3.10;;
3006;SDS011;1513;47.650;10.720;2022-07-29T11:27:06;4.00;;;3.03;;
3006;SDS011;1513;47.650;10.720;2022-07-29T11:30:14;3.30;;;3.10;;
3006;SDS011;1513;47.650;10.720;2022-07-29T11:33:31;3.50;;;3.20;;
3006;SDS011;1513;47.650;10.720;2022-07-29T11:36:35;3.20;;;2.90;;
3006;SDS011;1513;47.650;10.720;2022-07-29T11:40:07;3.60;;;2.80;;
3006;SDS011;1513;47.650;10.720;2022-07-29T11:43:12;2.57;;;2.47;;
3006;SDS011;1513;47.650;10.720;2022-07-29T11:46:55;3.00;;;2.80;;
3006;SDS011;1513;47.650;10.720;2022-07-29T11:49:59;2.90;;;2.60;;
3006;SDS011;1513;47.650;10.720;2022-07-29T11:53:10;2.50;;;2.40;;
3006;SDS011;1513;47.650;10.720;2022-07-29T11:56:15;2.87;;;2.50;;
3006;SDS011;1513;47.650;10.720;2022-07-29T11:59:24;2.67;;;2.47;;
3006;SDS011;1513;47.650;10.720;2022-07-29T12:02:38;3.33;;;2.60;;
3006;SDS011;1513;47.650;10.720;2022-07-29T12:05:45;5.93;;;2.40;;
3006;SDS011;1513;47.650;10.720;2022-07-29T12:08:48;2.30;;;2.20;;
3006;SDS011;1513;47.650;10.720;2022-07-29T12:11:58;3.63;;;2.50;;
3006;SDS011;1513;47.650;10.720;2022-07-29T12:15:12;2.77;;;2.57;;
3006;SDS011;1513;47.650;10.720;2022-07-29T12:18:28;2.60;;;2.40;;
3006;SDS011;1513;47.650;10.720;2022-07-29T12:21:48;2.53;;;2.33;;
3006;SDS011;1513;47.650;10.720;2022-07-29T12:25:01;2.53;;;2.10;;
3006;SDS011;1513;47.650;10.720;2022-07-29T12:28:12;2.20;;;2.10;;
3006;SDS011;1513;47.650;10.720;2022-07-29T12:31:18;2.20;;;2.00;;
3006;SDS011;1513;47.650;10.720;2022-07-29T12:34:26;2.87;;;2.10;;
3006;SDS011;1513;47.650;10.720;2022-07-29T12:37:30;2.43;;;2.23;;
3006;SDS011;1513;47.650;10.720;2022-07-29T12:40:38;2.30;;;1.90;;
3006;SDS011;1513;47.650;10.720;2022-07-29T12:43:52;1.93;;;1.83;;
3006;SDS011;1513;47.650;10.720;2022-07-29T12:47:03;3.17;;;1.90;;
3006;SDS011;1513;47.650;10.720;2022-07-29T12:50:07;3.70;;;2.23;;
3006;SDS011;1513;47.650;10.720;2022-07-29T12:53:12;2.97;;;2.17;;
3006;SDS011;1513;47.650;10.720;2022-07-29T12:56:16;3.13;;;2.10;;
3006;SDS011;1513;47.650;10.720;2022-07-29T12:59:20;2.27;;;2.10;;
3006;SDS011;1513;47.650;10.720;2022-07-29T13:02:24;3.33;;;3.03;;
3006;SDS011;1513;47.650;10.720;2022-07-29T13:06:01;2.60;;;1.90;;
3006;SDS011;1513;47.650;10.720;2022-07-29T13:12:16;2.47;;;2.27;;
3006;SDS011;1513;47.650;10.720;2022-07-29T13:15:19;2.10;;;2.00;;
3006;SDS011;1513;47.650;10.720;2022-07-29T13:18:30;1.80;;;1.70;;
3006;SDS011;1513;47.650;10.720;2022-07-29T13:21:36;2.50;;;2.40;;
3006;SDS011;1513;47.650;10.720;2022-07-29T13:27:57;2.23;;;2.13;;
3006;SDS011;1513;47.650;10.720;2022-07-29T13:31:01;5.53;;;2.60;;
3006;SDS011;1513;47.650;10.720;2022-07-29T13:34:05;2.23;;;2.13;;
3006;SDS011;1513;47.650;10.720;2022-07-29T13:37:08;3.00;;;2.37;;
3006;SDS011;1513;47.650;10.720;2022-07-29T13:40:12;3.30;;;2.50;;
3006;SDS011;1513;47.650;10.720;2022-07-29T13:43:16;2.20;;;2.00;;
3006;SDS011;1513;47.650;10.720;2022-07-29T13:46:19;2.13;;;2.03;;
3006;SDS011;1513;47.650;10.720;2022-07-29T13:49:23;2.97;;;2.10;;
3006;SDS011;1513;47.650;10.720;2022-07-29T13:52:28;2.10;;;2.00;;
3006;SDS011;1513;47.650;10.720;2022-07-29T13:55:32;2.70;;;1.80;;
3006;SDS011;1513;47.650;10.720;2022-07-29T13:58:35;2.23;;;2.13;;
3006;SDS011;1513;47.650;10.720;2022-07-29T14:01:39;2.27;;;2.17;;
3006;SDS011;1513;47.650;10.720;2022-07-29T14:04:45;1.87;;;1.77;;
3006;SDS011;1513;47.650;10.720;2022-07-29T14:07:49;2.30;;;1.80;;
3006;SDS011;1513;47.650;10.720;2022-07-29T14:10:52;2.10;;;2.00;;
3006;SDS011;1513;47.650;10.720;2022-07-29T14:13:56;2.63;;;2.40;;
3006;SDS011;1513;47.650;10.720;2022-07-29T14:17:00;2.43;;;2.23;;
3006;SDS011;1513;47.650;10.720;2022-07-29T14:20:05;2.30;;;2.10;;
3006;SDS011;1513;47.650;10.720;2022-07-29T14:23:09;2.30;;;2.10;;
3006;SDS011;1513;47.650;10.720;2022-07-29T14:26:12;2.03;;;1.90;;
3006;SDS011;1513;47.650;10.720;2022-07-29T14:29:16;2.00;;;1.90;;
3006;SDS011;1513;47.650;10.720;2022-07-29T14:32:19;2.03;;;1.90;;
3006;SDS011;1513;47.650;10.720;2022-07-29T14:35:23;2.17;;;2.07;;
3006;SDS011;1513;47.650;10.720;2022-07-29T14:38:26;2.60;;;2.40;;
3006;SDS011;1513;47.650;10.720;2022-07-29T14:41:29;3.07;;;2.60;;
3006;SDS011;1513;47.650;10.720;2022-07-29T14:44:34;3.20;;;2.87;;
3006;SDS011;1513;47.650;10.720;2022-07-29T14:47:38;3.40;;;3.10;;
3006;SDS011;1513;47.650;10.720;2022-07-29T14:50:42;3.03;;;2.73;;
3006;SDS011;1513;47.650;10.720;2022-07-29T14:53:45;2.50;;;2.40;;
3006;SDS011;1513;47.650;10.720;2022-07-29T14:56:49;2.20;;;2.10;;
3006;SDS011;1513;47.650;10.720;2022-07-29T14:59:53;4.77;;;2.90;;
3006;SDS011;1513;47.650;10.720;2022-07-29T15:02:58;2.83;;;2.63;;
3006;SDS011;1513;47.650;10.720;2022-07-29T15:06:02;3.20;;;2.67;;
3006;SDS011;1513;47.650;10.720;2022-07-29T15:09:05;2.50;;;2.30;;
3006;SDS011;1513;47.650;10.720;2022-07-29T15:12:09;2.77;;;2.57;;
3006;SDS011;1513;47.650;10.720;2022-07-29T15:15:13;3.80;;;2.87;;
3006;SDS011;1513;47.650;10.720;2022-07-29T15:18:16;2.63;;;2.53;;
3006;SDS011;1513;47.650;10.720;2022-07-29T15:21:20;3.27;;;2.97;;
3006;SDS011;1513;47.650;10.720;2022-07-29T15:24:23;3.43;;;3.13;;
3006;SDS011;1513;47.650;10.720;2022-07-29T15:27:27;3.27;;;3.07;;
3006;SDS011;1513;47.650;10.720;2022-07-29T15:30:30;4.80;;;3.20;;
3006;SDS011;1513;47.650;10.720;2022-07-29T15:33:34;3.03;;;2.80;;
3006;SDS011;1513;47.650;10.720;2022-07-29T15:36:38;3.33;;;3.00;;
3006;SDS011;1513;47.650;10.720;2022-07-29T15:39:41;3.37;;;2.47;;
3006;SDS011;1513;47.650;10.720;2022-07-29T15:42:44;5.67;;;3.47;;
3006;SDS011;1513;47.650;10.720;2022-07-29T15:45:48;10.43;;;2.80;;
3006;SDS011;1513;47.650;10.720;2022-07-29T15:49:11;2.70;;;2.50;;
3006;SDS011;1513;47.650;10.720;2022-07-29T15:52:18;3.30;;;2.40;;
3006;SDS011;1513;47.650;10.720;2022-07-29T15:55:22;2.60;;;1.77;;
3006;SDS011;1513;47.650;10.720;2022-07-29T15:58:25;2.00;;;1.90;;
3006;SDS011;1513;47.650;10.720;2022-07-29T16:01:29;2.50;;;1.60;;
3006;SDS011;1513;47.650;10.720;2022-07-29T16:04:33;2.60;;;2.30;;
3006;SDS011;1513;47.650;10.720;2022-07-29T16:07:36;2.77;;;2.00;;
3006;SDS011;1513;47.650;10.720;2022-07-29T16:10:40;6.73;;;3.90;;
3006;SDS011;1513;47.650;10.720;2022-07-29T16:13:43;2.80;;;2.60;;
3006;SDS011;1513;47.650;10.720;2022-07-29T16:16:47;3.43;;;3.13;;
3006;SDS011;1513;47.650;10.720;2022-07-29T16:19:50;3.07;;;2.87;;
3006;SDS011;1513;47.650;10.720;2022-07-29T16:22:56;2.40;;;2.20;;
3006;SDS011;1513;47.650;10.720;2022-07-29T16:25:59;2.83;;;2.60;;
3006;SDS011;1513;47.650;10.720;2022-07-29T16:29:03;4.90;;;4.50;;
3006;SDS011;1513;47.650;10.720;2022-07-29T16:32:07;4.40;;;4.10;;
3006;SDS011;1513;47.650;10.720;2022-07-29T16:35:10;5.27;;;4.77;;
3006;SDS011;1513;47.650;10.720;2022-07-29T16:38:14;5.23;;;4.80;;
3006;SDS011;1513;47.650;10.720;2022-07-29T16:41:18;1.57;;;1.47;;
3006;SDS011;1513;47.650;10.720;2022-07-29T16:44:21;2.27;;;2.17;;
3006;SDS011;1513;47.650;10.720;2022-07-29T16:47:25;3.83;;;2.77;;
3006;SDS011;1513;47.650;10.720;2022-07-29T16:50:29;2.40;;;2.17;;
3006;SDS011;1513;47.650;10.720;2022-07-29T16:53:33;2.33;;;2.13;;
3006;SDS011;1513;47.650;10.720;2022-07-29T16:56:36;4.20;;;3.80;;
3006;SDS011;1513;47.650;10.720;2022-07-29T16:59:41;9.30;;;7.57;;
3006;SDS011;1513;47.650;10.720;2022-07-29T17:02:44;16.40;;;11.97;;
3006;SDS011;1513;47.650;10.720;2022-07-29T17:05:48;45.70;;;24.50;;
3006;SDS011;1513;47.650;10.720;2022-07-29T17:08:52;24.60;;;20.87;;
3006;SDS011;1513;47.650;10.720;2022-07-29T17:11:55;7.53;;;6.80;;
3006;SDS011;1513;47.650;10.720;2022-07-29T17:14:59;4.90;;;4.60;;
3006;SDS011;1513;47.650;10.720;2022-07-29T17:18:03;3.50;;;3.30;;
3006;SDS011;1513;47.650;10.720;2022-07-29T17:21:06;2.07;;;1.97;;
3006;SDS011;1513;47.650;10.720;2022-07-29T17:24:10;2.63;;;2.43;;
3006;SDS011;1513;47.650;10.720;2022-07-29T17:27:14;3.70;;;3.50;;
3006;SDS011;1513;47.650;10.720;2022-07-29T17:30:17;3.60;;;3.30;;
3006;SDS011;1513;47.650;10.720;2022-07-29T17:33:21;2.47;;;2.30;;
3006;SDS011;1513;47.650;10.720;2022-07-29T17:36:25;6.37;;;2.87;;
3006;SDS011;1513;47.650;10.720;2022-07-29T17:39:28;5.10;;;3.50;;
3006;SDS011;1513;47.650;10.720;2022-07-29T17:42:32;3.43;;;3.13;;
3006;SDS011;1513;47.650;10.720;2022-07-29T17:45:35;4.40;;;3.70;;
3006;SDS011;1513;47.650;10.720;2022-07-29T17:48:38;3.83;;;3.43;;
3006;SDS011;1513;47.650;10.720;2022-07-29T17:51:42;5.50;;;3.67;;
3006;SDS011;1513;47.650;10.720;2022-07-29T17:54:46;6.80;;;5.10;;
3006;SDS011;1513;47.650;10.720;2022-07-29T17:57:50;5.27;;;4.77;;
3006;SDS011;1513;47.650;10.720;2022-07-29T18:00:54;8.80;;;3.63;;
3006;SDS011;1513;47.650;10.720;2022-07-29T18:03:57;6.57;;;4.47;;
3006;SDS011;1513;47.650;10.720;2022-07-29T18:07:01;5.10;;;4.40;;
3006;SDS011;1513;47.650;10.720;2022-07-29T18:10:04;7.70;;;6.20;;
3006;SDS011;1513;47.650;10.720;2022-07-29T18:13:08;6.80;;;5.67;;
3006;SDS011;1513;47.650;10.720;2022-07-29T18:16:14;6.70;;;5.10;;
3006;SDS011;1513;47.650;10.720;2022-07-29T18:19:17;5.53;;;3.90;;
3006;SDS011;1513;47.650;10.720;2022-07-29T18:22:21;6.43;;;5.40;;
3006;SDS011;1513;47.650;10.720;2022-07-29T18:25:24;7.70;;;4.67;;
3006;SDS011;1513;47.650;10.720;2022-07-29T18:28:28;6.20;;;4.40;;
3006;SDS011;1513;47.650;10.720;2022-07-29T18:31:34;7.13;;;4.37;;
3006;SDS011;1513;47.650;10.720;2022-07-29T18:34:37;6.60;;;4.73;;
3006;SDS011;1513;47.650;10.720;2022-07-29T18:37:41;5.50;;;5.00;;
3006;SDS011;1513;47.650;10.720;2022-07-29T18:40:45;6.07;;;5.30;;
3006;SDS011;1513;47.650;10.720;2022-07-29T18:43:49;6.30;;;5.70;;
3006;SDS011;1513;47.650;10.720;2022-07-29T18:46:52;6.80;;;5.37;;
3006;SDS011;1513;47.650;10.720;2022-07-29T18:49:59;6.87;;;5.50;;
3006;SDS011;1513;47.650;10.720;2022-07-29T18:53:02;8.20;;;6.50;;
3006;SDS011;1513;47.650;10.720;2022-07-29T18:56:06;7.10;;;5.50;;
3006;SDS011;1513;47.650;10.720;2022-07-29T18:59:10;11.03;;;6.10;;
3006;SDS011;1513;47.650;10.720;2022-07-29T19:02:19;6.77;;;5.00;;
3006;SDS011;1513;47.650;10.720;2022-07-29T19:05:23;9.67;;;6.37;;
3006;SDS011;1513;47.650;10.720;2022-07-29T19:08:26;8.27;;;5.10;;
3006;SDS011;1513;47.650;10.720;2022-07-29T19:11:30;6.20;;;4.70;;
3006;SDS011;1513;47.650;10.720;2022-07-29T19:14:34;7.37;;;5.20;;
3006;SDS011;1513;47.650;10.720;2022-07-29T19:17:37;6.63;;;5.70;;
3006;SDS011;1513;47.650;10.720;2022-07-29T19:20:41;8.80;;;7.77;;
3006;SDS011;1513;47.650;10.720;2022-07-29T19:23:44;11.37;;;9.20;;
3006;SDS011;1513;47.650;10.720;2022-07-29T19:26:48;15.23;;;10.63;;
3006;SDS011;1513;47.650;10.720;2022-07-29T19:29:51;8.37;;;7.27;;
3006;SDS011;1513;47.650;10.720;2022-07-29T19:32:54;11.23;;;9.97;;
3006;SDS011;1513;47.650;10.720;2022-07-29T19:35:58;11.30;;;7.63;;
3006;SDS011;1513;47.650;10.720;2022-07-29T19:39:04;7.30;;;6.27;;
3006;SDS011;1513;47.650;10.720;2022-07-29T19:42:08;5.17;;;4.73;;
3006;SDS011;1513;47.650;10.720;2022-07-29T19:45:11;5.27;;;4.87;;